Time;durP1;ratioP1;P1;durP2;ratioP2;P2;SDS_P1;SDS_P2;PMS_P1;PMS_P2;Temp;Humidity;BMP_temperature;BMP_pressure;BME280_temperature;BME280_humidity;BME280_pressure;Samples;Min_cycle;Max_cycle;Signal;HPM_P1;HPM_P2
2022/02/03 00:01:26;;;;;;;;;9.00;8.00;;;;;9.87;65.03;101508.81;5100452;27;45641;-70
2022/02/03 00:04:03;;;;;;;;;8.50;6.50;;;;;9.86;64.63;101508.88;5098423;27;45464;-65
2022/02/03 00:06:45;;;;;;;;;9.00;7.75;;;;;9.81;64.46;101497.59;5098383;27;46284;-66
2022/02/03 00:25:33;;;;;;;;;10.25;7.00;;;;;9.81;64.59;101485.31;5100360;27;45558;-64
2022/02/03 00:35:43;;;;;;;;;5.00;5.00;;;;;9.72;64.83;101490.78;5101873;27;45330;-64
2022/02/03 00:48:19;;;;;;;;;8.00;7.00;;;;;9.67;64.41;101476.88;5100946;27;45511;-64
2022/02/03 00:49:29;;;;;;;;;7.75;5.75;;;;;9.64;64.73;101470.78;5045409;27;45308;-66
2022/02/03 00:51:59;;;;;;;;;8.00;6.00;;;;;9.62;64.97;101477.84;5099818;27;45322;-64
2022/02/03 00:54:25;;;;;;;;;8.50;6.00;;;;;9.63;64.94;101476.09;5100771;27;45213;-63
2022/02/03 00:57:03;;;;;;;;;5.00;5.00;;;;;9.62;64.87;101467.34;5102102;27;45376;-63
2022/02/03 00:59:35;;;;;;;;;8.00;7.25;;;;;9.62;64.87;101467.34;5100942;27;46008;-64
2022/02/03 01:02:05;;;;;;;;;5.75;5.75;;;;;9.64;64.99;101465.53;5099754;27;45340;-63
2022/02/03 01:04:31;;;;;;;;;7.00;6.75;;;;;9.62;65.07;101475.22;5099393;27;45230;-63
2022/02/03 01:06:58;;;;;;;;;6.25;6.00;;;;;9.61;65.16;101468.22;5099447;27;45669;-63
2022/02/03 01:09:28;;;;;;;;;5.00;4.50;;;;;9.61;65.06;101472.63;5099568;27;46096;-62
2022/02/03 01:12:04;;;;;;;;;5.00;5.00;;;;;9.60;65.00;101473.53;5098992;27;45444;-63
2022/02/03 01:14:49;;;;;;;;;9.25;7.00;;;;;9.61;65.04;101475.25;5099121;27;45374;-64
2022/02/03 01:17:32;;;;;;;;;7.25;6.75;;;;;9.57;65.17;101460.47;5100392;27;45477;-62
2022/02/03 01:44:55;;;;;;;;;7.75;5.00;;;;;9.41;65.15;101455.53;5100413;27;45242;-64
2022/02/03 01:52:32;;;;;;;;;7.25;7.00;;;;;9.42;65.24;101451.16;5101566;27;45347;-63
2022/02/03 01:54:59;;;;;;;;;7.25;5.75;;;;;9.42;65.15;101449.38;5103527;27;45249;-63
2022/02/03 01:57:36;;;;;;;;;5.00;5.00;;;;;9.43;65.46;101460.75;5102796;27;45710;-63
2022/02/03 02:00:10;;;;;;;;;5.00;5.00;;;;;9.39;65.10;101448.59;5102620;27;45406;-61
2022/02/03 02:02:43;;;;;;;;;5.00;5.00;;;;;9.40;65.10;101458.19;5102640;27;45448;-62
2022/02/03 02:05:42;;;;;;;;;8.00;6.00;;;;;9.37;64.89;101463.50;5102814;27;45367;-64
2022/02/03 02:08:30;;;;;;;;;7.50;5.00;;;;;9.30;65.04;101454.88;5101829;27;45445;-65
2022/02/03 02:11:38;;;;;;;;;6.50;4.25;;;;;9.28;65.14;101454.06;5104829;27;45481;-62
2022/02/03 02:39:48;;;;;;;;;8.00;4.25;;;;;9.14;64.88;101393.97;5102255;27;45370;-64
2022/02/03 02:42:32;;;;;;;;;5.00;5.00;;;;;9.16;64.99;101389.56;5103816;27;45369;-63
2022/02/03 02:45:13;;;;;;;;;4.25;4.25;;;;;9.18;64.57;101377.25;5104106;27;45437;-62
2022/02/03 02:48:15;;;;;;;;;5.00;5.00;;;;;9.15;65.12;101361.59;5104297;27;46137;-63
2022/02/03 02:50:58;;;;;;;;;5.50;5.50;;;;;9.14;65.08;101350.22;5104199;27;45363;-61
2022/02/03 02:54:06;;;;;;;;;5.00;3.00;;;;;9.15;64.93;101338.81;5098346;27;45225;-63
2022/02/03 02:56:53;;;;;;;;;5.00;4.50;;;;;9.15;65.17;101323.06;5098723;27;45283;-62
2022/02/03 03:03:16;;;;;;;;;9.00;6.25;;;;;9.18;64.93;101309.88;5099329;27;45338;-61
2022/02/03 03:38:12;;;;;;;;;7.00;4.75;;;;;9.24;64.49;101245.00;5098029;27;45275;-61
2022/02/03 03:40:48;;;;;;;;;7.25;4.50;;;;;9.20;64.58;101237.19;5098349;27;45310;-62
2022/02/03 03:43:24;;;;;;;;;7.00;7.00;;;;;9.22;64.77;101237.16;5096586;27;47460;-62
2022/02/03 03:45:53;;;;;;;;;7.25;6.50;;;;;9.20;64.31;101233.72;5099393;27;45364;-64
2022/02/03 03:48:20;;;;;;;;;6.50;6.50;;;;;9.15;64.35;101233.81;5099541;27;45350;-61
2022/02/03 03:50:53;;;;;;;;;7.00;5.25;;;;;9.13;64.87;101225.13;5098959;27;45391;-62
2022/02/03 03:53:33;;;;;;;;;7.25;7.00;;;;;9.14;64.86;101223.38;5100340;27;46300;-61
2022/02/03 03:56:32;;;;;;;;;8.00;6.25;;;;;9.08;64.40;101213.88;5100262;27;45192;-62
2022/02/03 04:37:29;;;;;;;;;8.00;8.00;;;;;8.84;65.52;101192.56;5099736;27;45389;-63
2022/02/03 05:03:05;;;;;;;;;7.00;6.00;;;;;8.76;65.95;101144.66;5098315;27;46188;-61
2022/02/03 05:09:46;;;;;;;;;5.75;5.50;;;;;8.79;66.28;101128.84;5096390;27;45332;-61
2022/02/03 05:12:35;;;;;;;;;5.00;5.00;;;;;8.82;66.34;101148.88;5093217;27;45852;-61
2022/02/03 05:21:57;;;;;;;;;9.00;6.25;;;;;8.79;65.93;101130.59;5096623;27;45304;-62
2022/02/03 06:14:11;;;;;;;;;12.00;9.50;;;;;8.50;66.81;101093.69;5104219;27;45323;-64
2022/02/03 06:21:58;;;;;;;;;10.25;8.25;;;;;8.44;67.08;101072.78;5099660;27;45399;-61
2022/02/03 06:24:34;;;;;;;;;14.50;14.00;;;;;8.44;66.66;101075.41;5098655;27;45428;-61
2022/02/03 06:27:48;;;;;;;;;15.00;11.25;;;;;8.44;66.61;101070.16;5099409;27;45417;-61
2022/02/03 06:29:51;;;;;;;;;16.00;13.00;;;;;8.36;66.93;101046.78;5088382;27;45378;-64
2022/02/03 06:32:17;;;;;;;;;12.00;11.00;;;;;8.43;66.65;101053.59;5099430;27;45386;-64
2022/02/03 06:34:42;;;;;;;;;11.50;10.25;;;;;8.44;67.05;101049.19;5098973;27;45333;-63
2022/02/03 06:37:10;;;;;;;;;13.25;10.75;;;;;8.42;67.07;101046.63;5097906;27;45356;-62
2022/02/03 06:39:35;;;;;;;;;13.50;12.75;;;;;8.38;67.07;101038.84;5099742;27;45348;-62
2022/02/03 06:42:04;;;;;;;;;13.00;11.00;;;;;8.39;67.25;101037.97;5097487;27;45592;-65
2022/02/03 06:47:11;;;;;;;;;12.75;12.75;;;;;8.39;67.16;101033.59;5099577;27;45380;-61
2022/02/03 06:52:41;;;;;;;;;13.25;11.50;;;;;8.38;67.31;101018.75;5099004;27;45326;-62
2022/02/03 06:55:21;;;;;;;;;16.25;12.75;;;;;8.40;66.80;101027.44;5100540;27;45387;-63
2022/02/03 06:58:04;;;;;;;;;13.00;12.00;;;;;8.36;67.09;101038.91;5099742;27;45348;-62
2022/02/03 07:00:34;;;;;;;;;10.25;9.00;;;;;8.36;67.40;101045.91;5101428;27;45275;-61
2022/02/03 07:03:01;;;;;;;;;12.50;11.25;;;;;8.34;66.98;101035.47;5097787;27;46206;-61
2022/02/03 07:05:27;;;;;;;;;13.25;10.25;;;;;8.32;67.55;101037.25;5098774;27;45286;-63
2022/02/03 07:07:53;;;;;;;;;16.00;13.25;;;;;8.37;67.11;101047.63;5099100;27;45193;-63
2022/02/03 07:10:19;;;;;;;;;14.75;13.75;;;;;8.35;67.11;101045.06;5098635;27;45235;-61
2022/02/03 07:12:45;;;;;;;;;15.50;14.75;;;;;8.40;67.36;101060.66;5098346;27;46082;-62
2022/02/03 07:15:11;;;;;;;;;19.00;15.00;;;;;8.36;67.42;101044.16;5098874;27;45418;-63
2022/02/03 07:17:38;;;;;;;;;14.50;13.00;;;;;8.33;67.01;101037.22;5098793;27;45293;-62
2022/02/03 07:20:07;;;;;;;;;12.50;11.50;;;;;8.30;66.83;101045.16;5099044;27;45453;-62
2022/02/03 07:22:33;;;;;;;;;15.00;14.50;;;;;8.28;67.29;101048.72;5099514;27;45535;-64
2022/02/03 07:24:59;;;;;;;;;15.50;15.50;;;;;8.07;66.77;101021.22;5100810;27;45361;-62
2022/02/03 07:27:26;;;;;;;;;20.00;16.00;;;;;8.27;66.70;101052.22;5101425;27;45228;-63
2022/02/03 07:29:53;;;;;;;;;18.00;15.00;;;;;8.27;67.29;101052.22;5101211;27;45452;-63
2022/02/03 07:32:21;;;;;;;;;17.00;15.50;;;;;8.27;67.28;101055.69;5101940;27;46227;-63
2022/02/03 07:34:47;;;;;;;;;27.00;25.25;;;;;8.23;67.36;101051.44;5099022;27;45366;-62
2022/02/03 07:37:12;;;;;;;;;22.75;19.00;;;;;8.28;66.90;101057.41;5097778;27;45396;-63
2022/02/03 07:39:39;;;;;;;;;18.50;16.25;;;;;8.29;67.49;101043.41;5097325;27;45283;-61
2022/02/03 07:42:04;;;;;;;;;15.75;14.25;;;;;8.29;67.53;101059.16;5098646;27;46131;-61
2022/02/03 07:44:30;;;;;;;;;17.25;16.50;;;;;8.30;67.31;101057.41;5097622;27;45330;-64
2022/02/03 07:46:56;;;;;;;;;18.25;15.75;;;;;8.25;67.27;101060.13;5099325;27;45383;-63
2022/02/03 07:49:21;;;;;;;;;18.25;17.50;;;;;8.26;67.58;101061.84;5097992;27;45314;-64
2022/02/03 07:51:46;;;;;;;;;15.25;15.00;;;;;8.21;67.73;101037.50;5098374;27;46089;-63
2022/02/03 07:54:11;;;;;;;;;15.25;15.25;;;;;8.29;67.09;101047.81;5100314;27;45319;-63
2022/02/03 07:56:37;;;;;;;;;15.25;13.50;;;;;8.23;66.65;101048.81;5097569;27;45469;-64
2022/02/03 07:59:03;;;;;;;;;13.50;12.00;;;;;8.24;66.97;101057.53;5097601;27;45476;-62
2022/02/03 08:01:29;;;;;;;;;15.75;15.00;;;;;8.19;66.90;101055.88;5098073;27;45367;-61
2022/02/03 08:03:55;;;;;;;;;17.75;15.25;;;;;8.16;67.30;101049.84;5097283;27;45812;-63
2022/02/03 08:06:29;;;;;;;;;15.75;14.75;;;;;8.14;66.61;101041.16;5101152;27;45200;-64
2022/02/03 08:09:04;;;;;;;;;18.50;17.00;;;;;8.18;66.71;101042.81;5099477;27;45550;-65
2022/02/03 08:11:36;;;;;;;;;16.00;15.00;;;;;8.14;67.34;101042.03;5076873;28;46119;-64
2022/02/03 08:14:13;;;;;;;;;15.50;15.25;;;;;8.23;67.40;101050.56;5077219;27;45408;-64
2022/02/03 08:16:43;;;;;;;;;15.25;13.75;;;;;8.25;67.14;101043.53;5098578;27;45681;-62
2022/02/03 08:19:19;;;;;;;;;16.75;15.50;;;;;8.25;67.13;101036.53;5099340;27;45361;-64
2022/02/03 08:21:50;;;;;;;;;17.75;14.00;;;;;8.30;66.80;101050.38;5100618;27;46084;-64
2022/02/03 08:24:42;;;;;;;;;14.25;12.75;;;;;8.31;66.90;101067.84;5101846;27;45333;-67
2022/02/03 08:32:29;;;;;;;;;19.25;16.00;;;;;8.29;66.62;101066.16;5098021;27;46040;-64
2022/02/03 08:37:21;;;;;;;;;16.75;14.25;;;;;8.35;67.02;101058.16;5087604;27;45299;-62
2022/02/03 08:39:56;;;;;;;;;16.00;14.50;;;;;8.37;66.76;101043.25;5099072;27;45533;-63
2022/02/03 08:42:21;;;;;;;;;16.00;14.75;;;;;8.36;66.52;101040.66;5085116;27;47984;-62
2022/02/03 08:44:48;;;;;;;;;20.75;19.25;;;;;8.35;66.48;101042.44;5096163;27;45318;-61
2022/02/03 08:47:13;;;;;;;;;18.25;18.00;;;;;8.32;66.11;101035.47;5096596;27;45311;-62
2022/02/03 08:49:44;;;;;;;;;22.75;19.50;;;;;8.32;66.63;101029.41;5095856;27;45516;-65
2022/02/03 08:52:17;;;;;;;;;25.25;18.50;;;;;8.34;66.87;101031.06;5096793;27;47214;-65
2022/02/03 08:54:52;;;;;;;;;21.50;18.75;;;;;8.37;66.47;101021.41;5094490;27;45412;-62
2022/02/03 08:57:30;;;;;;;;;18.25;17.75;;;;;8.39;66.21;101009.13;5095404;27;45660;-63
2022/02/03 09:55:10;;;;;;;;;22.50;19.25;;;;;8.78;66.60;100977.59;5103042;27;45461;-63
2022/02/03 09:57:42;;;;;;;;;24.25;22.75;;;;;8.88;66.68;100976.47;5103838;27;45360;-63
2022/02/03 10:00:26;;;;;;;;;23.00;21.50;;;;;8.96;66.22;100972.75;5102058;27;45394;-63
2022/02/03 10:03:00;;;;;;;;;22.75;17.50;;;;;8.98;66.08;100973.59;5103858;27;45168;-62
2022/02/03 10:05:41;;;;;;;;;25.75;19.00;;;;;9.00;66.24;100974.41;5104406;27;45585;-63
2022/02/03 10:08:19;;;;;;;;;9.75;6.00;;;;;9.01;65.71;100978.75;5107046;27;47462;-61
2022/02/03 10:10:47;;;;;;;;;20.75;19.75;;;;;8.96;65.81;100973.59;5102514;27;45373;-61
2022/02/03 10:13:21;;;;;;;;;28.50;22.25;;;;;8.94;65.82;100966.69;5102374;27;45255;-62
2022/02/03 10:16:02;;;;;;;;;23.25;19.75;;;;;8.94;65.95;100977.19;5099294;27;45586;-65
2022/02/03 10:18:29;;;;;;;;;25.75;20.00;;;;;8.96;65.89;100984.09;5099666;27;46283;-63
2022/02/03 10:20:56;;;;;;;;;24.25;22.75;;;;;8.94;65.90;100988.53;5099360;27;45430;-61
2022/02/03 10:23:24;;;;;;;;;20.25;18.25;;;;;8.93;65.87;100989.44;5099266;27;45463;-62
2022/02/03 10:25:54;;;;;;;;;22.75;22.25;;;;;8.91;66.08;100989.50;5100039;27;45361;-61
2022/02/03 10:28:20;;;;;;;;;23.25;20.75;;;;;8.95;65.82;100986.78;5099484;27;45944;-62
2022/02/03 10:31:00;;;;;;;;;37.75;31.50;;;;;8.98;66.37;100984.06;5099238;27;45702;-61
2022/02/03 10:33:40;;;;;;;;;21.00;20.50;;;;;9.03;66.08;100972.56;5101099;27;45220;-63
2022/02/03 10:36:14;;;;;;;;;24.25;21.00;;;;;9.16;65.88;100986.19;5100941;27;45428;-61
2022/02/03 10:42:02;;;;;;;;;27.50;25.50;;;;;9.27;65.31;100995.53;5094327;27;45365;-62
2022/02/03 10:48:12;;;;;;;;;28.00;26.25;;;;;9.30;65.21;101005.94;5105323;27;45524;-62
2022/02/03 10:50:41;;;;;;;;;27.75;24.00;;;;;9.26;65.05;100999.06;5093590;27;45818;-62
2022/02/03 11:01:00;;;;;;;;;30.25;24.75;;;;;9.23;65.01;100979.03;5098905;27;45436;-61
2022/02/03 11:06:24;;;;;;;;;29.75;28.00;;;;;9.31;65.41;100965.66;5098150;27;45282;-63
2022/02/03 11:11:32;;;;;;;;;31.50;25.50;;;;;9.45;64.89;100952.16;5098022;27;45291;-64
2022/02/03 11:13:59;;;;;;;;;31.75;26.25;;;;;9.33;64.22;100906.09;5096853;27;45274;-61
2022/02/03 11:16:26;;;;;;;;;38.50;30.75;;;;;9.53;64.28;100938.75;5098302;27;45420;-62
2022/02/03 11:18:52;;;;;;;;;26.00;23.00;;;;;9.47;64.48;100921.44;5098809;27;45492;-62
2022/02/03 11:21:18;;;;;;;;;27.25;23.25;;;;;9.56;64.23;100934.31;5098204;27;46510;-64
2022/02/03 11:23:50;;;;;;;;;31.25;27.25;;;;;9.64;64.17;100920.94;5098297;27;45414;-63
2022/02/03 11:26:29;;;;;;;;;30.50;24.25;;;;;9.75;64.34;100916.22;5097760;27;45373;-62
2022/02/03 11:31:51;;;;;;;;;22.25;22.00;;;;;9.81;63.31;100924.81;5099000;27;45420;-64
2022/02/03 11:43:20;;;;;;;;;30.25;27.75;;;;;9.92;63.52;100923.53;5098511;27;46166;-63
2022/02/03 11:51:56;;;;;;;;;25.75;24.00;;;;;10.07;62.86;100911.69;5099609;27;45349;-63
2022/02/03 12:16:06;;;;;;;;;27.25;22.75;;;;;9.78;63.28;100883.72;5096602;27;45736;-63
2022/02/03 12:27:37;;;;;;;;;36.75;29.50;;;;;9.57;63.75;100880.03;5097068;27;45881;-63
2022/02/03 12:29:57;;;;;;;;;31.00;25.00;;;;;9.46;63.76;100877.72;5095996;27;46324;-63
2022/02/03 12:32:38;;;;;;;;;31.50;26.00;;;;;9.36;64.26;100858.75;5095432;27;45294;-64
2022/02/03 12:38:16;;;;;;;;;33.50;29.50;;;;;9.29;64.19;100851.97;5096346;27;45313;-64
2022/02/03 12:40:53;;;;;;;;;28.50;26.25;;;;;9.33;64.76;100854.47;5096811;27;45164;-62
2022/02/03 12:45:51;;;;;;;;;29.50;28.25;;;;;9.38;64.72;100854.31;5097874;27;45397;-62
2022/02/03 12:48:24;;;;;;;;;37.00;30.00;;;;;9.40;64.41;100849.03;5098582;27;46118;-62
2022/02/03 12:50:53;;;;;;;;;29.00;24.25;;;;;9.34;64.60;100856.19;5096584;27;45480;-64
2022/02/03 12:53:19;;;;;;;;;37.00;29.50;;;;;9.24;64.82;100840.75;5095197;27;45409;-62
2022/02/03 12:55:50;;;;;;;;;33.75;28.00;;;;;9.28;65.06;100848.50;5096352;27;45479;-62
2022/02/03 12:58:19;;;;;;;;;27.75;26.00;;;;;9.33;65.22;100850.97;5096620;27;46287;-62
2022/02/03 13:03:19;;;;;;;;;30.00;26.25;;;;;9.41;65.24;100838.47;5096190;27;45404;-62
2022/02/03 13:05:57;;;;;;;;;27.00;23.50;;;;;9.44;65.31;100827.00;5095411;27;45604;-62
2022/02/03 13:08:40;;;;;;;;;29.50;25.75;;;;;9.51;65.10;100839.03;5097752;27;46299;-62
2022/02/03 13:11:18;;;;;;;;;26.25;24.00;;;;;9.53;65.24;100842.47;5097711;27;45360;-62
2022/02/03 13:16:20;;;;;;;;;33.50;28.00;;;;;9.58;65.07;100842.34;5097751;27;45241;-64
2022/02/03 13:18:59;;;;;;;;;34.25;29.50;;;;;9.54;64.69;100841.56;5094799;27;47364;-63
2022/02/03 13:21:52;;;;;;;;;28.00;26.50;;;;;9.49;65.06;100835.59;5096358;27;45452;-65
2022/02/03 13:26:43;;;;;;;;;27.00;27.00;;;;;9.41;65.51;100835.00;5097524;27;45432;-62
2022/02/03 13:29:17;;;;;;;;;35.25;28.50;;;;;9.32;65.79;100821.25;5098906;27;46186;-62
2022/02/03 13:32:05;;;;;;;;;35.75;30.25;;;;;9.34;65.64;100840.44;5097287;27;45411;-62
2022/02/03 13:34:41;;;;;;;;;23.75;22.50;;;;;9.32;65.85;100826.50;5096853;27;45434;-63
2022/02/03 13:37:28;;;;;;;;;27.75;23.00;;;;;9.28;66.19;100834.50;5097450;27;45344;-61
2022/02/03 13:40:12;;;;;;;;;30.25;22.75;;;;;9.21;66.31;100837.31;5096936;27;45400;-62
2022/02/03 13:42:43;;;;;;;;;23.00;22.50;;;;;9.16;66.25;100828.72;5095934;27;45317;-62
2022/02/03 13:45:09;;;;;;;;;24.75;20.50;;;;;9.11;66.45;100822.75;5095757;27;45420;-62
2022/02/03 13:47:36;;;;;;;;;31.75;25.75;;;;;9.07;66.94;100826.38;5097027;27;45377;-62
2022/02/03 13:50:09;;;;;;;;;26.25;24.75;;;;;8.99;67.22;100836.25;5096892;27;46219;-63
2022/02/03 13:53:02;;;;;;;;;29.00;25.75;;;;;8.97;67.58;100832.81;5099563;27;45325;-63
2022/02/03 14:28:22;;;;;;;;;36.75;27.25;;;;;8.45;70.10;100797.50;5100646;27;45246;-62
2022/02/03 14:30:52;;;;;;;;;42.00;33.75;;;;;8.38;70.52;100779.34;5099996;27;45441;-62
2022/02/03 14:33:27;;;;;;;;;36.00;30.00;;;;;8.48;70.05;100796.53;5100487;27;45433;-63
2022/02/03 14:35:52;;;;;;;;;34.25;27.25;;;;;8.52;70.31;100790.38;5082663;27;45490;-62
2022/02/03 14:38:29;;;;;;;;;32.50;26.75;;;;;8.58;69.96;100799.81;5099491;27;45502;-63
2022/02/03 14:41:08;;;;;;;;;30.00;25.75;;;;;8.62;69.95;100797.06;5097823;27;45414;-62
2022/02/03 14:43:34;;;;;;;;;37.00;28.75;;;;;8.73;69.97;100788.03;5099430;27;46371;-62
2022/02/03 14:46:01;;;;;;;;;27.50;25.25;;;;;8.82;69.67;100781.63;5099715;27;45430;-63
2022/02/03 14:48:26;;;;;;;;;32.00;30.00;;;;;8.91;69.40;100782.22;5100778;27;45426;-62
2022/02/03 14:50:55;;;;;;;;;27.50;22.25;;;;;9.06;69.50;100775.66;5097947;27;45395;-63
2022/02/03 14:53:30;;;;;;;;;40.25;32.75;;;;;9.26;69.21;100773.31;5099862;27;46627;-63
2022/02/03 14:58:40;;;;;;;;;30.00;29.00;;;;;9.64;68.10;100763.34;5099277;27;45470;-62
2022/02/03 15:01:05;;;;;;;;;29.75;26.75;;;;;9.76;67.33;100770.81;5099687;27;45626;-63
2022/02/03 15:03:31;;;;;;;;;19.75;19.25;;;;;9.85;66.90;100764.38;5098973;27;45900;-62
2022/02/03 15:06:03;;;;;;;;;44.75;32.00;;;;;9.99;66.87;100776.19;5100391;27;45353;-62
2022/02/03 15:11:08;;;;;;;;;30.75;23.50;;;;;10.12;65.51;100772.25;5099892;27;45199;-64
2022/02/03 15:16:03;;;;;;;;;23.50;21.75;;;;;10.14;65.27;100774.78;5099385;27;45516;-62
2022/02/03 15:18:29;;;;;;;;;30.75;23.50;;;;;10.13;65.45;100778.34;5100490;27;45470;-63
2022/02/03 15:20:55;;;;;;;;;25.25;19.25;;;;;10.12;65.07;100779.25;5099245;27;45597;-64
2022/02/03 15:23:21;;;;;;;;;23.00;22.25;;;;;10.05;65.21;100774.22;5098726;27;45385;-65
2022/02/03 15:25:46;;;;;;;;;23.00;21.00;;;;;9.99;65.38;100774.44;5100880;27;45215;-62
2022/02/03 15:28:11;;;;;;;;;23.00;18.00;;;;;9.91;65.36;100774.69;5099028;27;45602;-63
2022/02/03 15:30:37;;;;;;;;;21.75;21.00;;;;;9.90;65.39;100770.34;5099854;27;45592;-63
2022/02/03 15:33:03;;;;;;;;;22.75;19.00;;;;;9.92;65.59;100773.75;5101298;27;45364;-61
2022/02/03 15:35:39;;;;;;;;;25.50;20.25;;;;;9.94;65.69;100771.94;5101433;27;45330;-64
2022/02/03 15:38:07;;;;;;;;;28.50;22.25;;;;;9.99;65.51;100771.78;5103135;27;45412;-62
2022/02/03 15:40:35;;;;;;;;;22.75;18.50;;;;;9.97;65.29;100767.50;5099176;27;45291;-61
2022/02/03 15:45:33;;;;;;;;;23.75;20.25;;;;;9.93;65.55;100772.00;5099995;27;45218;-61
2022/02/03 15:48:03;;;;;;;;;22.00;19.50;;;;;9.87;65.55;100767.81;5099223;27;45494;-64
2022/02/03 15:50:55;;;;;;;;;22.00;20.25;;;;;9.83;65.41;100767.97;5098753;27;45255;-62
2022/02/03 15:56:23;;;;;;;;;32.75;28.75;;;;;9.73;65.97;100772.69;5097354;27;45396;-63
2022/02/03 16:15:58;;;;;;;;;23.75;19.00;;;;;9.63;67.15;100762.47;5102876;27;45815;-61
2022/02/03 16:17:27;;;;;;;;;25.00;24.00;;;;;9.63;67.05;100765.09;5099488;27;45252;-63
2022/02/03 16:20:10;;;;;;;;;25.00;19.25;;;;;9.58;67.24;100755.69;5100976;27;45314;-61
2022/02/03 16:54:48;;;;;;;;;30.50;25.25;;;;;9.47;68.88;100772.63;5096746;27;45203;-64
2022/02/03 16:57:18;;;;;;;;;25.50;21.50;;;;;9.49;68.64;100773.44;5096712;27;46221;-62
2022/02/03 16:59:51;;;;;;;;;33.50;26.50;;;;;9.49;68.46;100778.69;5095439;27;45414;-62
2022/02/03 17:02:17;;;;;;;;;17.00;16.50;;;;;9.53;68.66;100775.94;5097065;27;45388;-63
2022/02/03 17:04:43;;;;;;;;;19.25;19.00;;;;;9.53;68.08;100783.84;5098111;27;45663;-64
2022/02/03 17:07:09;;;;;;;;;29.00;25.75;;;;;9.50;68.61;100775.16;5098115;27;45340;-65
2022/02/03 17:09:35;;;;;;;;;23.25;21.75;;;;;9.43;68.60;100764.91;5096241;27;45296;-64
2022/02/03 17:12:00;;;;;;;;;26.00;21.75;;;;;9.52;68.75;100777.72;5096535;27;45240;-65
2022/02/03 17:14:28;;;;;;;;;24.50;20.25;;;;;9.53;68.92;100773.31;5096192;27;45412;-64
2022/02/03 17:16:54;;;;;;;;;32.75;29.00;;;;;9.56;68.88;100774.09;5097080;27;46535;-62
2022/02/03 17:19:21;;;;;;;;;21.50;20.75;;;;;9.54;68.96;100765.41;5097442;27;45209;-65
2022/02/03 17:21:46;;;;;;;;;25.25;23.00;;;;;9.56;69.03;100774.09;5097605;27;45412;-64
2022/02/03 17:24:12;;;;;;;;;23.00;20.75;;;;;9.54;68.94;100775.03;5099919;27;45331;-63
2022/02/03 17:27:21;;;;;;;;;22.75;20.75;;;;;9.48;69.16;100766.47;5101260;27;46420;-62
2022/02/03 17:29:40;;;;;;;;;28.00;26.25;;;;;9.54;68.93;100781.16;5099179;27;45250;-63
2022/02/03 18:10:13;;;;;;;;;19.75;19.25;;;;;9.52;69.69;100793.50;5102344;27;45951;-62
2022/02/03 18:27:07;;;;;;;;;21.75;19.25;;;;;9.50;70.59;100805.81;5099674;27;45391;-63
2022/02/03 18:36:53;;;;;;;;;16.25;16.00;;;;;9.49;71.12;100798.84;5099207;27;45298;-62
2022/02/03 18:50:17;;;;;;;;;18.25;17.25;;;;;9.41;71.60;100799.06;5098687;27;45211;-63
2022/02/03 18:53:02;;;;;;;;;21.00;18.25;;;;;9.41;71.65;100806.09;5098033;27;45293;-63
2022/02/03 18:55:36;;;;;;;;;21.25;20.00;;;;;9.40;71.84;100809.63;5097826;27;45304;-62
2022/02/03 18:58:29;;;;;;;;;25.00;21.75;;;;;9.40;71.66;100801.75;5098377;27;45272;-63
2022/02/03 19:09:31;;;;;;;;;25.50;21.75;;;;;9.28;72.07;100795.13;5101203;27;45382;-63
2022/02/03 20:05:55;;;;;;;;;23.75;23.75;;;;;9.12;74.63;100813.97;5100746;27;45607;-64
2022/02/03 20:10:53;;;;;;;;;39.00;29.50;;;;;9.15;74.72;100824.38;5097524;27;45435;-63
2022/02/03 20:13:19;;;;;;;;;31.75;28.75;;;;;9.16;75.00;100820.00;5097748;27;45451;-63
2022/02/03 20:15:46;;;;;;;;;33.50;29.00;;;;;9.15;74.76;100821.75;5098761;27;45250;-64
2022/02/03 20:18:12;;;;;;;;;38.50;31.50;;;;;9.11;75.27;100817.50;5098201;27;47427;-62
2022/02/03 20:20:42;;;;;;;;;24.50;24.00;;;;;9.12;75.20;100823.63;5097802;27;45286;-63
2022/02/03 20:23:11;;;;;;;;;29.00;28.25;;;;;9.08;75.30;100829.88;5097866;27;45366;-64
2022/02/03 20:25:37;;;;;;;;;29.75;29.25;;;;;9.05;75.56;100822.94;5099756;27;45388;-62
2022/02/03 20:28:07;;;;;;;;;35.00;30.25;;;;;8.98;75.84;100818.78;5102341;27;46250;-62
2022/02/03 20:30:33;;;;;;;;;33.00;28.50;;;;;8.96;75.62;100815.34;5100915;27;45466;-62
2022/02/03 20:32:59;;;;;;;;;30.25;27.50;;;;;8.91;76.31;100810.22;5099065;27;45450;-64
2022/02/03 20:35:24;;;;;;;;;35.00;28.00;;;;;8.91;76.72;100813.72;5098048;27;45289;-62
2022/02/03 20:37:50;;;;;;;;;29.75;26.75;;;;;8.95;77.05;100817.09;5097403;27;46252;-63
2022/02/03 20:40:15;;;;;;;;;31.75;27.50;;;;;8.94;77.23;100819.78;5096698;27;45386;-63
2022/02/03 20:42:41;;;;;;;;;49.00;37.50;;;;;8.92;77.21;100819.81;5095558;27;45364;-62
2022/02/03 20:45:08;;;;;;;;;28.50;25.50;;;;;8.89;77.42;100807.66;5097034;27;45342;-63
2022/02/03 20:47:34;;;;;;;;;31.50;29.75;;;;;8.89;77.53;100823.41;5096639;27;46110;-64
2022/02/03 20:50:00;;;;;;;;;29.25;26.00;;;;;8.85;77.20;100827.00;5097749;27;45459;-63
2022/02/03 20:52:25;;;;;;;;;29.25;26.25;;;;;8.79;77.54;100827.19;5097765;27;45235;-63
2022/02/03 20:54:51;;;;;;;;;31.25;28.50;;;;;8.80;77.77;100835.91;5096563;27;45378;-63
2022/02/03 20:57:16;;;;;;;;;27.00;25.75;;;;;8.79;77.71;100824.56;5097717;27;45388;-64
2022/02/03 21:02:17;;;;;;;;;36.50;29.50;;;;;8.80;77.53;100828.91;5097709;27;45421;-64
2022/02/03 21:05:06;;;;;;;;;26.75;22.00;;;;;8.83;77.71;100825.31;5099332;27;45396;-62
2022/02/03 21:07:35;;;;;;;;;29.75;26.75;;;;;8.82;77.67;100823.59;5097315;27;45573;-62
2022/02/03 21:10:05;;;;;;;;;29.25;25.50;;;;;8.83;77.80;100822.69;5096829;27;45345;-62
2022/02/03 21:12:31;;;;;;;;;25.25;21.25;;;;;8.82;77.55;100828.84;5097201;27;45259;-62
2022/02/03 21:14:58;;;;;;;;;26.75;22.75;;;;;8.81;77.46;100828.00;5098306;27;45577;-62
2022/02/03 21:17:26;;;;;;;;;30.50;23.25;;;;;8.83;77.52;100831.44;5100120;27;47137;-63
2022/02/03 21:19:51;;;;;;;;;23.00;22.50;;;;;8.84;77.62;100832.28;5097433;27;45425;-63
2022/02/03 21:22:17;;;;;;;;;29.00;23.75;;;;;8.83;77.64;100831.44;5096868;27;45325;-62
2022/02/03 21:24:42;;;;;;;;;23.75;23.75;;;;;8.83;77.20;100828.81;5097005;27;45538;-64
2022/02/03 21:27:15;;;;;;;;;28.25;25.25;;;;;8.82;77.55;100829.72;5097148;27;46902;-62
2022/02/03 21:29:42;;;;;;;;;27.00;25.00;;;;;8.82;77.88;100828.84;5099715;27;45344;-62
2022/02/03 21:32:07;;;;;;;;;24.75;21.50;;;;;8.81;77.21;100835.88;5097293;27;45399;-63
2022/02/03 21:34:32;;;;;;;;;24.00;20.75;;;;;8.82;76.90;100829.72;5097184;27;45474;-63
2022/02/03 21:36:58;;;;;;;;;23.00;20.00;;;;;8.83;77.39;100833.19;5098338;27;45478;-62
2022/02/03 21:39:23;;;;;;;;;29.75;23.50;;;;;8.84;77.31;100834.91;5096936;27;45358;-62
2022/02/03 21:41:48;;;;;;;;;23.00;19.75;;;;;8.81;77.37;100828.00;5096990;27;46032;-62
2022/02/03 21:44:15;;;;;;;;;23.25;21.50;;;;;8.81;77.28;100832.38;5098194;27;45661;-62
2022/02/03 21:46:42;;;;;;;;;29.00;24.75;;;;;8.79;76.92;100839.44;5101278;27;47471;-63
2022/02/03 21:49:07;;;;;;;;;24.00;22.00;;;;;8.81;77.24;100842.88;5097414;27;45278;-61
2022/02/03 21:51:40;;;;;;;;;22.25;19.25;;;;;8.82;77.28;100845.47;5095606;27;45287;-62
2022/02/03 21:54:07;;;;;;;;;25.50;22.50;;;;;8.79;77.27;100840.31;5098607;27;45424;-65
2022/02/03 21:56:32;;;;;;;;;24.25;22.00;;;;;8.76;77.13;100845.63;5096718;27;46900;-62
2022/02/03 21:59:07;;;;;;;;;24.75;22.25;;;;;8.79;77.32;100839.44;5096818;27;45226;-62
2022/02/03 22:01:34;;;;;;;;;30.50;26.50;;;;;8.78;77.51;100843.84;5096966;27;45237;-62
2022/02/03 22:04:00;;;;;;;;;26.25;22.00;;;;;8.74;77.17;100837.78;5097258;27;45202;-62
2022/02/03 22:06:25;;;;;;;;;23.50;19.25;;;;;8.71;77.72;100831.78;5096492;27;45477;-63
2022/02/03 22:08:51;;;;;;;;;25.75;22.00;;;;;8.75;77.70;100841.28;5096903;27;45802;-63
2022/02/03 22:11:16;;;;;;;;;24.50;21.25;;;;;8.70;77.63;100830.91;5098243;27;45228;-63
2022/02/03 22:13:42;;;;;;;;;22.50;21.50;;;;;8.76;77.88;100845.63;5100122;27;45266;-63